Time;durP1;ratioP1;P1;durP2;ratioP2;P2;SDS_P1;SDS_P2;PMS_P1;PMS_P2;Temp;Humidity;BMP_temperature;BMP_pressure;BME280_temperature;BME280_humidity;BME280_pressure;Samples;Min_cycle;Max_cycle;Signal;HPM_P1;HPM_P2
2022/12/07 00:21:31;;;;;;;14.50;7.30;;;;;;;-6.07;100.00;100499.73;1793288;74;23035;31
2022/12/07 00:23:57;;;;;;;21.37;8.50;;;;;;;-5.42;100.00;100494.22;1687602;83;21686;-67
2022/12/07 00:26:29;;;;;;;13.27;6.43;;;;;;;-5.05;100.00;100492.44;1683540;85;21156;-66
2022/12/07 00:29:00;;;;;;;15.73;7.83;;;;;;;-4.95;100.00;100482.03;1728230;83;20982;-67
2022/12/07 00:31:29;;;;;;;20.23;7.73;;;;;;;-4.74;100.00;100467.67;1728690;83;21010;-68
2022/12/07 00:33:56;;;;;;;27.87;14.23;;;;;;;-4.43;100.00;100461.33;1728413;83;21035;-67
2022/12/07 00:36:24;;;;;;;14.60;6.40;;;;;;;-4.23;100.00;100461.05;1709917;83;21596;-67
2022/12/07 00:38:50;;;;;;;20.33;8.87;;;;;;;-3.98;100.00;100465.55;1728149;83;21802;-67
2022/12/07 00:41:20;;;;;;;17.53;7.50;;;;;;;-3.61;100.00;100461.84;1728242;83;21037;-67
2022/12/07 00:43:48;;;;;;;17.57;8.55;;;;;;;-3.33;100.00;100456.52;1727869;82;21067;-67
2022/12/07 00:46:14;;;;;;;20.30;7.40;;;;;;;-3.12;100.00;100453.59;1728512;83;21132;-67
2022/12/07 00:48:41;;;;;;;18.20;8.00;;;;;;;-2.99;100.00;100441.41;1728332;83;21510;-68
2022/12/07 00:51:10;;;;;;;22.63;7.47;;;;;;;-2.91;100.00;100442.47;1728239;83;21150;-66
2022/12/07 00:53:37;;;;;;;21.70;8.85;;;;;;;-2.79;100.00;100441.45;1709611;83;21081;-67
2022/12/07 00:56:13;;;;;;;16.77;8.05;;;;;;;-2.82;99.79;100440.53;1728531;83;21097;-67
2022/12/07 00:58:40;;;;;;;16.10;8.10;;;;;;;-2.77;99.96;100439.78;1728500;83;21065;-66
2022/12/07 01:01:08;;;;;;;27.52;9.28;;;;;;;-2.91;99.64;100439.90;1728261;83;21511;-67
2022/12/07 01:03:35;;;;;;;16.95;6.65;;;;;;;-2.93;100.00;100437.70;1728335;83;21124;-67
2022/12/07 01:06:02;;;;;;;17.17;7.08;;;;;;;-2.99;100.00;100437.55;1728457;83;21022;-67
2022/12/07 01:08:29;;;;;;;17.15;7.08;;;;;;;-2.97;100.00;100438.45;1728350;83;21011;-66
2022/12/07 01:11:03;;;;;;;21.57;8.15;;;;;;;-2.73;100.00;100436.00;1728462;83;20995;-68
2022/12/07 01:13:30;;;;;;;15.28;6.30;;;;;;;-2.87;100.00;100431.83;1727760;83;21085;-68
2022/12/07 01:15:59;;;;;;;20.70;8.05;;;;;;;-2.86;100.00;100431.84;1721062;83;21125;-67
2022/12/07 01:18:28;;;;;;;23.37;8.80;;;;;;;-2.82;100.00;100418.19;1721069;83;21083;-67
2022/12/07 01:21:14;;;;;;;20.20;8.35;;;;;;;-2.73;100.00;100421.39;1720839;83;21086;-67
2022/12/07 01:23:40;;;;;;;21.12;8.78;;;;;;;-2.68;100.00;100415.05;1717118;82;21079;-66
2022/12/07 01:26:11;;;;;;;19.60;7.97;;;;;;;-2.81;100.00;100410.89;1716207;83;21020;-67
2022/12/07 01:28:38;;;;;;;;;;;;;;;-2.84;100.00;100406.97;1718909;83;21110;-67
2022/12/07 01:31:16;;;;;;;14.73;6.72;;;;;;;-2.82;100.00;100404.02;1715760;83;20213;-68
2022/12/07 01:33:47;;;;;;;21.30;8.50;;;;;;;-2.85;100.00;100400.09;1715345;83;21535;-67
2022/12/07 01:36:26;;;;;;;27.95;9.43;;;;;;;-2.86;100.00;100391.89;1714475;83;21840;-67
2022/12/07 01:38:59;;;;;;;17.15;7.08;;;;;;;-2.79;100.00;100391.61;1715548;83;22047;-67
2022/12/07 01:41:29;;;;;;;23.55;8.63;;;;;;;-2.75;100.00;100383.97;1715449;83;21552;-67
2022/12/07 01:44:18;;;;;;;26.50;9.13;;;;;;;-2.79;100.00;100387.31;1715581;83;21068;-67
2022/12/07 01:46:50;;;;;;;20.92;8.20;;;;;;;-2.80;100.00;100373.98;1715445;83;21536;-67
2022/12/07 01:49:42;;;;;;;25.12;8.43;;;;;;;-2.84;100.00;100372.17;1715645;83;21096;-67
2022/12/07 01:52:28;;;;;;;20.32;7.78;;;;;;;-2.76;100.00;100382.24;1715279;83;21060;-66
2022/12/07 01:54:59;;;;;;;14.27;7.57;;;;;;;-2.78;100.00;100367.16;1715340;83;21155;-68
2022/12/07 01:57:26;;;;;;;14.63;7.20;;;;;;;-2.79;100.00;100367.98;1715494;83;21115;-67
2022/12/07 01:59:53;;;;;;;19.10;10.05;;;;;;;-2.79;100.00;100369.27;1715365;83;21025;-67
2022/12/07 02:02:30;;;;;;;18.57;8.25;;;;;;;-2.56;100.00;100371.03;1659221;83;21053;-67
2022/12/07 02:04:57;;;;;;;17.55;7.50;;;;;;;-2.60;100.00;100367.06;1642271;87;21041;-68
2022/12/07 02:07:24;;;;;;;18.42;7.65;;;;;;;-2.49;100.00;100370.73;1647163;87;22089;-67
2022/12/07 06:14:12;;;;;;;22.53;10.93;;;;;;;-5.20;100.00;100228.75;1753874;80;21105;-91
2022/12/07 06:16:38;;;;;;;28.17;10.97;;;;;;;-4.88;100.00;100230.52;1775800;80;21189;-90
2022/12/07 06:19:04;;;;;;;28.93;10.90;;;;;;;-4.61;100.00;100228.20;1764107;80;21115;-89
2022/12/07 06:21:31;;;;;;;20.27;9.03;;;;;;;-4.40;100.00;100216.30;1737188;81;21085;-91
2022/12/07 06:23:57;;;;;;;38.20;12.70;;;;;;;-4.28;100.00;100215.34;1692687;83;21081;-90
2022/12/07 06:26:25;;;;;;;25.23;11.00;;;;;;;-4.11;100.00;100217.44;1721731;83;21132;-91
2022/12/07 06:28:52;;;;;;;24.50;10.07;;;;;;;-3.92;100.00;100222.59;1719215;83;21583;-88
2022/12/07 06:31:18;;;;;;;34.87;11.73;;;;;;;-3.61;100.00;100213.44;1699977;83;21559;-91
2022/12/07 06:33:45;;;;;;;30.90;10.97;;;;;;;-3.49;100.00;100210.67;1689244;83;21162;-91
2022/12/07 06:36:11;;;;;;;25.33;9.47;;;;;;;-3.42;100.00;100215.11;1716372;83;21216;-90
2022/12/07 06:38:38;;;;;;;20.23;8.73;;;;;;;-3.33;100.00;100226.03;1706313;83;21109;-89
2022/12/07 06:41:04;;;;;;;23.93;10.77;;;;;;;-3.27;100.00;100219.69;1714940;82;21241;-91
2022/12/07 06:43:31;;;;;;;23.92;10.48;;;;;;;-3.33;100.00;100215.72;1705594;82;21104;-91
2022/12/07 06:45:57;;;;;;;26.15;8.83;;;;;;;-3.43;100.00;100205.63;1723522;82;21017;-90
2022/12/07 06:48:24;;;;;;;23.30;9.50;;;;;;;-3.35;100.00;100210.95;1710596;82;21656;-89
2022/12/07 06:50:50;;;;;;;25.20;10.33;;;;;;;-3.25;100.00;100211.16;1696104;82;21644;-90
2022/12/07 06:53:18;;;;;;;22.42;9.35;;;;;;;-3.24;100.00;100207.76;1701435;82;21312;-90
2022/12/07 06:55:45;;;;;;;19.23;8.70;;;;;;;-3.29;100.00;100201.66;1720943;82;21593;-90
2022/12/07 06:58:11;;;;;;;29.80;9.98;;;;;;;-3.22;100.00;100198.36;1732253;82;21041;-89
2022/12/07 07:00:38;;;;;;;27.58;9.68;;;;;;;-3.22;100.00;100195.78;1704614;83;21052;-90
2022/12/07 07:03:04;;;;;;;23.85;10.40;;;;;;;-2.99;100.00;100200.48;1703865;83;21050;-91
2022/12/07 07:05:31;;;;;;;24.60;10.30;;;;;;;-3.02;100.00;100204.30;1720699;83;21197;-91
2022/12/07 07:07:57;;;;;;;24.23;9.23;;;;;;;-3.02;100.00;100193.56;1717898;83;21078;-89
2022/12/07 07:10:24;;;;;;;31.82;11.33;;;;;;;-2.95;100.00;100193.27;1718007;83;21030;-90
2022/12/07 07:12:50;;;;;;;25.17;9.53;;;;;;;-2.84;100.00;100194.77;1691618;83;22823;-90
2022/12/07 07:15:17;;;;;;;19.17;9.08;;;;;;;-2.78;100.00;100193.17;1679002;83;21236;-90
2022/12/07 07:17:44;;;;;;;28.73;10.68;;;;;;;-2.73;100.00;100197.55;1668747;84;21326;-90
2022/12/07 07:20:11;;;;;;;23.95;9.78;;;;;;;-2.80;100.00;100197.42;1667853;84;21090;-91
2022/12/07 07:22:38;;;;;;;24.87;10.30;;;;;;;-2.73;100.00;100198.41;1663490;84;21078;-90
2022/12/07 07:25:05;;;;;;;20.85;10.00;;;;;;;-2.68;100.00;100199.77;1667561;84;21607;-91
2022/12/07 07:27:32;;;;;;;26.73;11.15;;;;;;;-2.48;100.00;100191.97;1673655;84;21007;-91
2022/12/07 07:29:58;;;;;;;19.40;8.98;;;;;;;-2.23;100.00;100187.18;1668234;84;21228;-91
2022/12/07 07:32:27;;;;;;;22.25;10.98;;;;;;;-2.07;100.00;100190.87;1663404;84;21562;-90
2022/12/07 07:34:54;;;;;;;25.90;10.75;;;;;;;-2.18;100.00;100188.14;1677956;84;21195;-89
2022/12/07 07:37:21;;;;;;;25.95;10.15;;;;;;;-2.12;100.00;100185.64;1677518;84;21168;-92
2022/12/07 07:39:48;;;;;;;21.80;10.53;;;;;;;-2.05;100.00;100184.88;1692226;84;21027;-90
2022/12/07 07:42:15;;;;;;;19.23;9.10;;;;;;;-2.06;100.00;100180.58;1675466;84;21286;-91
2022/12/07 07:44:43;;;;;;;32.70;13.32;;;;;;;-2.04;100.00;100169.00;1668194;84;21102;-91
2022/12/07 07:47:10;;;;;;;52.23;21.07;;;;;;;-2.06;100.00;100180.58;1677536;84;21190;-90
2022/12/07 07:49:36;;;;;;;23.05;10.85;;;;;;;-1.92;100.00;100177.77;1700731;84;21142;-91
2022/12/07 07:52:05;;;;;;;27.45;13.13;;;;;;;-1.85;100.00;100185.61;1698553;83;21086;-92
2022/12/07 07:54:32;;;;;;;40.30;14.65;;;;;;;-1.94;100.00;100182.03;1693609;84;21522;-90
2022/12/07 07:56:59;;;;;;;29.37;12.03;;;;;;;-1.91;100.00;100185.97;1678550;84;21011;-89
2022/12/07 07:59:25;;;;;;;33.15;13.10;;;;;;;-1.75;100.00;100178.42;1670603;84;21058;-89
2022/12/07 08:01:52;;;;;;;31.12;11.90;;;;;;;-1.91;100.00;100183.39;1677927;83;21040;-88
2022/12/07 08:04:18;;;;;;;26.00;11.43;;;;;;;-2.01;100.00;100176.34;1690862;84;21577;-89
2022/12/07 08:06:45;;;;;;;26.80;11.65;;;;;;;-1.72;100.00;100178.48;1680499;84;21231;-91
2022/12/07 08:09:12;;;;;;;31.10;13.25;;;;;;;-1.91;100.00;100173.07;1672399;84;21039;-91
2022/12/07 08:11:38;;;;;;;29.85;12.35;;;;;;;-1.86;100.00;100172.23;1651940;84;21066;-92
2022/12/07 08:14:04;;;;;;;35.45;16.42;;;;;;;-1.91;100.00;100166.61;1688936;83;21192;-91
2022/12/07 08:16:31;;;;;;;29.45;13.48;;;;;;;-1.90;100.00;100169.63;1697484;84;21075;-91
2022/12/07 08:18:58;;;;;;;21.07;11.48;;;;;;;-1.79;100.00;100163.33;1699403;83;21166;-91
2022/12/07 08:21:24;;;;;;;43.38;17.40;;;;;;;-1.85;100.00;100166.25;1699688;83;21080;-90
2022/12/07 08:23:53;;;;;;;25.32;12.50;;;;;;;-1.90;100.00;100168.34;1694935;83;21071;-91
2022/12/07 08:26:19;;;;;;;42.03;18.37;;;;;;;-1.88;100.00;100157.19;1685466;83;20994;-91
2022/12/07 08:28:46;;;;;;;29.40;13.58;;;;;;;-1.91;100.00;100152.42;1693273;83;21072;-90
2022/12/07 08:31:16;;;;;;;38.92;18.42;;;;;;;-1.93;100.00;100153.25;1696521;83;22350;-91
2022/12/07 08:33:42;;;;;;;38.83;16.70;;;;;;;-1.96;100.00;100154.05;1696636;83;21087;-92
2022/12/07 08:36:10;;;;;;;45.88;18.20;;;;;;;-1.92;100.00;100151.95;1696756;83;21072;-90
2022/12/07 08:38:39;;;;;;;47.30;18.25;;;;;;;-1.92;100.00;100151.95;1688335;83;21528;-91
2022/12/07 08:41:08;;;;;;;56.10;16.12;;;;;;;-1.91;100.00;100147.25;1694178;83;22191;-90
2022/12/07 08:43:36;;;;;;;32.80;13.68;;;;;;;-1.62;100.00;100144.17;1697077;83;21250;-91
2022/12/07 08:46:13;;;;;;;97.10;23.67;;;;;;;-1.61;100.00;100145.92;1697026;83;21485;-90
2022/12/07 08:48:48;;;;;;;47.13;16.70;;;;;;;-1.42;100.00;100142.28;1696297;83;21594;-90
2022/12/07 08:51:15;;;;;;;95.32;25.08;;;;;;;-1.45;100.00;100133.17;1696135;83;21089;-91
2022/12/07 08:53:41;;;;;;;51.35;15.88;;;;;;;-1.32;100.00;100135.06;1697164;83;21542;-91
2022/12/07 08:56:09;;;;;;;30.02;11.35;;;;;;;-1.24;100.00;100136.42;1692810;83;21146;-90
2022/12/07 08:58:38;;;;;;;38.73;15.45;;;;;;;-1.03;100.00;100116.42;1697594;83;21223;-90
2022/12/07 09:01:04;;;;;;;50.17;16.32;;;;;;;-0.67;100.00;100116.76;1697945;83;20998;-90
2022/12/07 09:03:31;;;;;;;48.60;16.25;;;;;;;-0.74;100.00;100120.11;1697824;83;21077;-89
2022/12/07 09:06:00;;;;;;;28.45;13.20;;;;;;;-0.72;100.00;100108.07;1697863;83;21088;-90
2022/12/07 09:08:32;;;;;;;63.40;20.55;;;;;;;-0.68;100.00;100117.59;1698652;83;21229;-90
2022/12/07 09:10:59;;;;;;;36.58;15.93;;;;;;;-0.60;100.00;100111.61;1697942;83;21020;-92
2022/12/07 09:13:25;;;;;;;42.70;17.15;;;;;;;-0.46;100.00;100109.59;1696882;83;21060;-91
2022/12/07 09:15:52;;;;;;;49.53;17.52;;;;;;;-0.49;100.00;100107.39;1673456;84;21060;-91
2022/12/07 09:18:19;;;;;;;34.25;16.48;;;;;;;-0.76;100.00;100102.45;1681442;84;21124;-92
2022/12/07 09:20:46;;;;;;;38.95;16.07;;;;;;;-0.79;100.00;100110.60;1684998;84;21121;-90
2022/12/07 09:23:13;;;;;;;47.73;18.30;;;;;;;-0.86;100.00;100102.78;1682422;84;21083;-90
2022/12/07 09:25:39;;;;;;;44.88;18.20;;;;;;;-0.85;100.00;100098.06;1690919;84;21096;-90
2022/12/07 09:28:06;;;;;;;44.90;17.52;;;;;;;-0.84;100.00;100092.45;1693378;84;21664;-90
2022/12/07 09:30:34;;;;;;;55.88;19.57;;;;;;;-0.85;100.00;100095.91;1690604;84;21101;-91
2022/12/07 09:33:05;;;;;;;40.98;18.32;;;;;;;-1.11;100.00;100083.59;1693789;84;21588;-89
2022/12/07 09:35:33;;;;;;;59.63;19.37;;;;;;;-0.98;100.00;100094.92;1679140;84;21055;-90
2022/12/07 09:37:59;;;;;;;49.23;20.92;;;;;;;-1.00;100.00;100082.84;1666467;84;21052;-90
2022/12/07 09:40:28;;;;;;;39.67;15.20;;;;;;;-1.03;100.00;100078.95;1694520;84;21132;-90
2022/12/07 09:42:57;;;;;;;41.68;17.95;;;;;;;-1.12;100.00;100079.28;1686613;84;21672;-90
2022/12/07 09:45:31;;;;;;;42.95;18.57;;;;;;;-0.93;100.00;100084.19;1680211;84;21233;-91
2022/12/07 09:47:59;;;;;;;42.00;19.35;;;;;;;-0.92;100.00;100078.59;1668741;84;21120;-89
2022/12/07 09:50:29;;;;;;;50.17;21.57;;;;;;;-0.91;100.00;100079.05;1686262;84;21085;-88
2022/12/07 09:53:06;;;;;;;;;;;;;;;-0.80;100.00;100067.08;1682780;84;21056;-89
2022/12/07 09:55:35;;;;;;;34.73;18.17;;;;;;;-0.64;100.00;100065.04;1675166;84;20179;-88
2022/12/07 09:58:02;;;;;;;49.88;20.75;;;;;;;-0.59;100.00;100071.97;1675466;84;21669;-88
2022/12/07 10:00:29;;;;;;;39.80;20.70;;;;;;;-0.54;100.00;100070.28;1688844;84;20978;-89
2022/12/07 10:03:01;;;;;;;71.30;27.13;;;;;;;-0.47;100.00;100069.46;1680230;84;21564;-90
2022/12/07 10:05:45;;;;;;;73.67;25.55;;;;;;;-0.52;100.00;100067.28;1697260;84;20954;-88
2022/12/07 10:08:12;;;;;;;44.85;20.60;;;;;;;-0.52;100.00;100065.98;1691741;84;21108;-90
2022/12/07 10:10:39;;;;;;;84.77;29.92;;;;;;;-0.63;100.00;100063.31;1690796;84;21528;-91
2022/12/07 10:13:19;;;;;;;49.93;20.95;;;;;;;-0.56;100.00;100066.81;1690976;84;20989;-90
2022/12/07 13:55:46;;;;;;;103.57;46.00;;;;;;;-3.49;100.00;100009.85;1834584;77;22692;-90
2022/12/07 13:58:17;;;;;;;108.95;45.45;;;;;;;-3.05;100.00;100009.73;1776768;80;20992;-90
2022/12/07 14:00:45;;;;;;;159.18;62.80;;;;;;;-2.73;100.00;100014.09;1778844;80;20981;-90
2022/12/07 14:03:17;;;;;;;152.80;64.20;;;;;;;-2.62;100.00;100015.55;1780167;80;20944;-88
2022/12/07 14:05:44;;;;;;;106.97;45.80;;;;;;;-2.34;100.00;100017.66;1776692;80;21663;-90
2022/12/07 14:08:19;;;;;;;91.65;42.38;;;;;;;-2.23;100.00;100010.06;1774959;80;21063;-89
2022/12/07 14:10:54;;;;;;;70.05;33.05;;;;;;;-2.06;100.00;100010.27;1774567;80;21394;-90
2022/12/07 14:13:40;;;;;;;62.00;30.88;;;;;;;-1.86;100.00;100013.09;1776038;79;21109;-90
2022/12/07 14:16:31;;;;;;;68.37;30.08;;;;;;;-1.56;100.00;100016.42;1804980;78;21792;-91
2022/12/07 14:18:59;;;;;;;50.38;24.02;;;;;;;-1.31;100.00;100023.13;1783301;78;21319;-89
2022/12/07 14:21:33;;;;;;;56.10;25.80;;;;;;;-1.15;100.00;100022.41;1768043;78;20966;-87
2022/12/07 14:24:18;;;;;;;45.38;23.85;;;;;;;-0.93;100.00;100025.16;1691083;78;89441;-67
2022/12/07 14:26:49;;;;;;;47.00;23.92;;;;;;;-0.86;100.00;100008.84;1674555;85;21234;-68
2022/12/07 14:29:30;;;;;;;56.15;26.57;;;;;;;-0.91;100.00;100017.00;1674842;85;21085;-66
2022/12/07 14:32:03;;;;;;;45.88;24.60;;;;;;;-0.98;100.00;100013.93;1665129;85;21014;-68
2022/12/07 14:34:31;;;;;;;52.35;26.57;;;;;;;-0.96;100.00;100003.17;1670387;85;21019;-67
2022/12/07 14:36:58;;;;;;;44.30;23.50;;;;;;;-1.03;100.00;100003.55;1674378;85;21034;-67
2022/12/07 14:39:24;;;;;;;54.55;26.37;;;;;;;-1.00;100.00;100002.27;1674898;85;21207;-66
2022/12/07 14:41:51;;;;;;;51.88;26.12;;;;;;;-1.01;100.00;100000.95;1674491;85;21053;-66
2022/12/07 14:44:20;;;;;;;61.35;28.62;;;;;;;-1.14;100.00;100000.88;1674876;85;21066;-67
2022/12/07 14:46:48;;;;;;;59.00;28.47;;;;;;;-1.04;100.00;99988.02;1674462;85;21082;-67
2022/12/07 14:49:16;;;;;;;71.57;29.63;;;;;;;-1.09;100.00;99997.03;1674968;85;21050;-67
2022/12/07 14:51:43;;;;;;;62.15;28.02;;;;;;;-1.05;100.00;99992.33;1674535;85;21914;-66
2022/12/07 14:54:19;;;;;;;90.10;34.25;;;;;;;-1.00;100.00;99982.89;1674879;85;21121;-66
2022/12/07 14:56:50;;;;;;;64.12;30.82;;;;;;;-1.11;100.00;99967.28;1673995;84;21850;-67
2022/12/07 14:59:17;;;;;;;102.07;40.63;;;;;;;-1.04;100.00;99957.00;1673377;85;21034;-67
2022/12/07 15:01:43;;;;;;;155.10;59.55;;;;;;;-1.02;100.00;99957.89;1673449;85;21178;-66
2022/12/07 15:04:10;;;;;;;67.32;29.85;;;;;;;-1.05;100.00;99963.91;1673305;85;21240;-67
2022/12/07 15:06:36;;;;;;;61.30;29.20;;;;;;;-1.11;100.00;99964.70;1672865;85;21049;-67
2022/12/07 15:09:04;;;;;;;80.05;35.75;;;;;;;-1.01;100.00;99957.02;1672724;85;22198;-67
2022/12/07 15:11:30;;;;;;;59.08;28.62;;;;;;;-0.95;100.00;99962.23;1672790;85;21078;-68
2022/12/07 15:14:10;;;;;;;54.88;27.02;;;;;;;-1.03;100.00;99953.58;1669718;85;21089;-68
2022/12/07 15:16:42;;;;;;;52.62;25.85;;;;;;;-1.01;100.00;99964.77;1660775;86;21192;-67
2022/12/07 15:19:25;;;;;;;59.23;28.80;;;;;;;-1.02;100.00;99958.74;1660852;86;21632;-67
2022/12/07 15:21:52;;;;;;;60.88;26.10;;;;;;;-1.02;100.00;99943.67;1661050;86;21066;-67
2022/12/07 15:24:19;;;;;;;59.30;25.57;;;;;;;-1.01;100.00;99950.55;1660889;86;21605;-67
2022/12/07 15:26:46;;;;;;;67.72;28.83;;;;;;;-1.05;100.00;99950.98;1661004;86;21161;-67
2022/12/07 15:29:14;;;;;;;51.75;25.77;;;;;;;-1.00;100.00;99960.05;1660764;86;21152;-67
2022/12/07 15:31:41;;;;;;;60.17;26.87;;;;;;;-0.98;100.00;99960.94;1660871;86;21057;-67
2022/12/07 15:34:08;;;;;;;63.50;29.42;;;;;;;-1.12;100.00;99959.11;1660617;86;21616;-66
2022/12/07 15:36:36;;;;;;;55.98;28.30;;;;;;;-1.01;100.00;99960.89;1660920;86;21711;-67
2022/12/07 15:39:03;;;;;;;66.25;30.65;;;;;;;-1.01;100.00;99962.19;1660751;86;21105;-67
2022/12/07 15:41:30;;;;;;;61.02;27.90;;;;;;;-1.03;100.00;99967.80;1660517;86;21160;-67
2022/12/07 15:46:41;;;;;;;52.20;26.62;;;;;;;-0.98;100.00;99973.86;1660482;86;21506;-67
2022/12/07 15:49:17;;;;;;;62.67;29.32;;;;;;;-0.99;100.00;99968.23;1660705;86;21145;-67
2022/12/07 15:51:45;;;;;;;58.40;28.42;;;;;;;-0.93;100.00;99977.34;1660689;86;21141;-66
2022/12/07 15:54:24;;;;;;;61.05;28.38;;;;;;;-0.77;100.00;99986.92;1661197;86;21124;-68
2022/12/07 15:56:50;;;;;;;55.67;28.02;;;;;;;-0.62;100.00;99977.52;1660823;85;21378;-67
2022/12/07 15:59:16;;;;;;;56.00;27.30;;;;;;;-0.60;100.00;99977.97;1661262;86;21077;-68
2022/12/07 16:01:43;;;;;;;57.50;29.27;;;;;;;-0.62;100.00;99983.98;1660972;86;21073;-68
2022/12/07 16:04:10;;;;;;;56.13;26.17;;;;;;;-0.68;100.00;99980.52;1660765;86;21072;-67
2022/12/07 16:06:37;;;;;;;53.42;24.43;;;;;;;-0.65;100.00;99986.99;1660790;86;21939;-67
2022/12/07 16:09:04;;;;;;;54.77;25.57;;;;;;;-0.66;100.00;99989.16;1660733;86;21089;-67
2022/12/07 16:11:31;;;;;;;48.40;23.05;;;;;;;-0.72;100.00;99989.11;1660767;86;21130;-67
2022/12/07 16:13:57;;;;;;;50.48;24.92;;;;;;;-0.66;100.00;99996.05;1663679;85;21058;-67
2022/12/07 16:16:24;;;;;;;50.33;25.32;;;;;;;-0.70;100.00;99992.57;1672763;85;21296;-67
2022/12/07 16:18:50;;;;;;;47.45;23.57;;;;;;;-0.68;100.00;99996.03;1672834;85;21160;-67
2022/12/07 16:21:17;;;;;;;58.87;27.00;;;;;;;-0.68;100.00;99998.63;1672705;85;21094;-67
2022/12/07 16:23:44;;;;;;;49.35;26.00;;;;;;;-0.69;100.00;99989.14;1672779;85;21097;-67
2022/12/07 16:26:18;;;;;;;47.62;24.00;;;;;;;-0.52;100.00;99995.70;1672716;85;21134;-67
2022/12/07 16:28:44;;;;;;;46.68;24.02;;;;;;;-0.55;100.00;99989.63;1672920;85;21074;-67
2022/12/07 16:31:14;;;;;;;46.65;24.37;;;;;;;-0.49;100.00;99983.21;1673062;85;21142;-67
2022/12/07 16:33:41;;;;;;;72.97;35.38;;;;;;;-0.36;100.00;99992.77;1672972;85;21590;-67
2022/12/07 16:36:09;;;;;;;49.83;24.82;;;;;;;-0.38;100.00;99990.61;1672884;85;21677;-67
2022/12/07 16:38:36;;;;;;;60.17;29.02;;;;;;;-0.35;100.00;99990.61;1672681;85;21688;-66
2022/12/07 16:41:05;;;;;;;51.90;26.12;;;;;;;-0.39;100.00;99987.59;1672861;85;21065;-68
2022/12/07 16:43:32;;;;;;;55.12;26.50;;;;;;;-0.29;100.00;99991.95;1672745;85;21887;-67
2022/12/07 16:45:58;;;;;;;51.48;26.12;;;;;;;-0.20;100.00;99990.27;1673020;85;21086;-67
2022/12/07 16:48:25;;;;;;;211.92;68.67;;;;;;;-0.25;100.00;99994.99;1673018;85;21102;-66
2022/12/07 16:50:53;;;;;;;50.98;25.55;;;;;;;-0.12;100.00;99988.56;1672971;85;21046;-67
2022/12/07 16:53:22;;;;;;;55.83;26.48;;;;;;;-0.35;100.00;99993.63;1672851;85;21081;-67
2022/12/07 16:55:49;;;;;;;84.80;36.98;;;;;;;-0.40;100.00;99989.73;1672633;84;21287;-68
2022/12/07 16:58:15;;;;;;;59.08;26.52;;;;;;;-0.26;100.00;99983.33;1672766;85;21562;-67
2022/12/07 17:00:42;;;;;;;44.80;22.55;;;;;;;-0.40;100.00;99983.70;1673077;85;22087;-67
2022/12/07 17:03:08;;;;;;;46.60;24.85;;;;;;;-0.43;100.00;99980.67;1672637;85;21114;-67
2022/12/07 17:05:40;;;;;;;49.42;24.27;;;;;;;-0.33;100.00;99982.43;1672933;85;21035;-66
2022/12/07 17:08:06;;;;;;;49.45;24.98;;;;;;;-0.20;100.00;99979.92;1672596;85;21242;-67
2022/12/07 17:10:35;;;;;;;50.17;22.95;;;;;;;-0.18;100.00;99979.06;1672929;85;21067;-67
2022/12/07 17:15:16;;;;;;;59.27;29.00;;;;;;;-0.28;100.00;99975.55;1672812;85;21035;-68
2022/12/07 17:15:31;;;;;;;152.45;80.72;;;;;;;-0.31;100.00;99979.42;1652020;86;21551;-67
2022/12/07 17:17:58;;;;;;;59.83;29.80;;;;;;;-0.40;100.00;99983.27;1653731;86;21062;-67
2022/12/07 17:20:26;;;;;;;351.25;170.38;;;;;;;-0.23;100.00;99984.22;1653738;86;22065;-67
2022/12/07 17:22:53;;;;;;;153.57;81.63;;;;;;;-0.37;100.00;99988.44;1653505;86;21133;-66
2022/12/07 17:25:19;;;;;;;195.97;119.60;;;;;;;-0.49;100.00;99984.07;1654223;86;21066;-66
2022/12/07 17:27:47;;;;;;;107.32;64.62;;;;;;;-0.56;100.00;99987.48;1653541;86;21129;-67
2022/12/07 17:30:14;;;;;;;56.23;28.80;;;;;;;-0.57;100.00;99975.42;1654003;86;21546;-66
2022/12/07 17:32:40;;;;;;;59.67;28.70;;;;;;;-0.51;100.00;99965.52;1653644;86;22087;-67
2022/12/07 17:35:08;;;;;;;58.80;28.75;;;;;;;-0.56;100.00;99972.40;1653661;86;21606;-67
2022/12/07 17:37:35;;;;;;;45.63;23.98;;;;;;;-0.51;100.00;99979.75;1653714;86;21050;-67
2022/12/07 17:40:03;;;;;;;67.97;32.88;;;;;;;-0.53;100.00;99973.70;1653760;86;21641;-67
2022/12/07 17:42:36;;;;;;;89.15;41.77;;;;;;;-0.50;100.00;99969.86;1653679;86;21078;-67
2022/12/07 17:45:05;;;;;;;68.00;29.40;;;;;;;-0.29;100.00;99975.56;1653756;86;21313;-67
2022/12/07 17:47:32;;;;;;;74.77;34.15;;;;;;;-0.31;100.00;99972.95;1654020;86;21086;-66
2022/12/07 17:49:58;;;;;;;54.23;26.17;;;;;;;-0.40;100.00;99969.03;1653745;86;21074;-67
2022/12/07 17:55:09;;;;;;;66.57;29.55;;;;;;;-0.22;100.00;99973.00;1654099;85;21051;-68
2022/12/07 17:57:36;;;;;;;54.95;23.83;;;;;;;-0.34;100.00;99976.83;1653719;86;21310;-68
